createdAt,value
2024-03-02T00:00:56.397Z,49.08
2024-03-02T00:03:25.441Z,53.42
2024-03-02T00:05:52.242Z,48.97
2024-03-02T00:08:18.750Z,50.72
2024-03-02T00:10:45.263Z,49.08
2024-03-02T00:13:12.443Z,48.30
2024-03-02T00:15:39.522Z,49.08
2024-03-02T00:18:06.101Z,48.70
2024-03-02T00:20:32.735Z,51.88
2024-03-02T00:22:59.493Z,49.78
2024-03-02T00:25:27.188Z,54.58
2024-03-02T00:27:53.804Z,55.60
2024-03-02T00:30:21.652Z,54.63
2024-03-02T00:32:48.863Z,51.85
2024-03-02T00:35:16.182Z,52.25
2024-03-02T00:37:43.935Z,56.75
2024-03-02T00:40:10.653Z,59.47
2024-03-02T00:42:37.323Z,52.35
2024-03-02T00:45:04.919Z,60.85
2024-03-02T00:47:31.598Z,54.67
2024-03-02T00:49:58.054Z,56.45
2024-03-02T00:52:24.713Z,52.30
2024-03-02T00:54:51.371Z,49.90
2024-03-02T00:57:19.049Z,47.70
2024-03-02T00:59:48.001Z,50.55
2024-03-02T01:02:15.228Z,53.75
2024-03-02T01:04:41.989Z,54.45
2024-03-02T01:07:09.127Z,53.88
2024-03-02T01:09:36.030Z,55.38
2024-03-02T01:12:02.531Z,52.95
2024-03-02T01:14:29.372Z,46.83
2024-03-02T01:16:58.609Z,60.63
2024-03-02T01:19:26.766Z,56.40
2024-03-02T01:21:53.582Z,51.22
2024-03-02T01:24:20.525Z,61.97
2024-03-02T01:26:47.125Z,48.67
2024-03-02T01:29:13.985Z,52.13
2024-03-02T01:31:40.977Z,46.28
2024-03-02T01:34:07.654Z,50.80
2024-03-02T01:36:34.271Z,49.60
2024-03-02T01:39:00.974Z,49.88
2024-03-02T01:41:27.401Z,49.67
2024-03-02T01:43:54.335Z,45.65
2024-03-02T01:46:20.882Z,47.40
2024-03-02T01:48:47.424Z,43.10
2024-03-02T01:51:14.546Z,50.17
2024-03-02T01:53:41.233Z,50.75
2024-03-02T01:56:07.966Z,48.67
2024-03-02T01:58:35.714Z,49.20
2024-03-02T02:01:02.524Z,47.70
2024-03-02T02:03:29.145Z,49.88
2024-03-02T02:05:56.209Z,48.42
2024-03-02T02:08:22.749Z,50.67
2024-03-02T02:10:49.309Z,51.78
2024-03-02T02:13:15.717Z,52.17
2024-03-02T02:15:42.482Z,46.17
2024-03-02T02:18:09.170Z,52.55
2024-03-02T02:20:35.859Z,45.45
2024-03-02T02:23:02.533Z,48.80
2024-03-02T02:25:29.227Z,46.47
2024-03-02T02:27:55.920Z,50.53
2024-03-02T02:30:22.534Z,53.10
2024-03-02T02:32:49.291Z,44.30
2024-03-02T02:35:16.241Z,44.67
2024-03-02T02:37:43.034Z,47.22
2024-03-02T02:40:09.554Z,51.17
2024-03-02T02:42:37.196Z,44.97
2024-03-02T02:45:04.272Z,45.58
2024-03-02T02:47:31.951Z,47.70
2024-03-02T02:49:58.583Z,46.13
2024-03-02T02:52:25.123Z,50.35
2024-03-02T02:54:53.104Z,54.15
2024-03-02T02:57:19.915Z,51.92
2024-03-02T02:59:46.473Z,50.42
2024-03-02T03:02:15.983Z,44.83
2024-03-02T03:04:44.395Z,44.60
2024-03-02T03:07:11.089Z,44.10
2024-03-02T03:09:37.972Z,48.45
2024-03-02T03:12:07.883Z,53.80
2024-03-02T03:14:37.510Z,48.30
2024-03-02T03:17:04.124Z,45.95
2024-03-02T03:19:31.158Z,48.80
2024-03-02T03:21:58.519Z,46.75
2024-03-02T03:24:25.528Z,49.78
2024-03-02T03:26:55.292Z,46.03
2024-03-02T03:29:21.801Z,47.80
2024-03-02T03:31:48.392Z,47.90
2024-03-02T03:34:14.969Z,46.15
2024-03-02T03:36:41.656Z,48.58
2024-03-02T03:39:08.214Z,52.58
2024-03-02T03:41:34.623Z,49.05
2024-03-02T03:44:01.420Z,49.33
2024-03-02T03:46:28.438Z,45.50
2024-03-02T03:48:55.699Z,53.05
2024-03-02T03:51:22.270Z,46.88
2024-03-02T03:53:48.812Z,49.22
2024-03-02T03:56:16.406Z,44.25
2024-03-02T03:58:43.116Z,42.70
2024-03-02T04:01:09.769Z,46.40
2024-03-02T04:03:36.574Z,51.85
2024-03-02T04:06:04.312Z,46.53
2024-03-02T04:08:31.466Z,46.08
2024-03-02T04:10:58.175Z,54.55
2024-03-02T04:13:25.421Z,46.55
2024-03-02T04:15:51.932Z,45.25
2024-03-02T04:18:18.448Z,43.13
2024-03-02T04:20:45.259Z,47.05
2024-03-02T04:23:11.825Z,49.78
2024-03-02T04:25:38.323Z,52.30
2024-03-02T04:28:06.412Z,45.78
2024-03-02T04:30:33.006Z,44.95
2024-03-02T04:32:59.574Z,42.42
2024-03-02T04:35:26.937Z,47.28
2024-03-02T04:37:53.605Z,42.13
2024-03-02T04:40:20.098Z,49.53
2024-03-02T04:42:46.946Z,47.90
2024-03-02T04:45:13.592Z,45.20
2024-03-02T04:47:40.130Z,45.75
2024-03-02T04:50:07.417Z,46.72
2024-03-02T04:52:33.918Z,45.38
2024-03-02T04:55:00.469Z,45.70
2024-03-02T04:57:27.395Z,48.40
2024-03-02T04:59:54.033Z,44.05
2024-03-02T05:02:20.848Z,43.42
2024-03-02T05:04:47.436Z,45.42
2024-03-02T05:07:13.979Z,45.90
2024-03-02T05:09:40.464Z,47.28
2024-03-02T05:12:06.952Z,43.72
2024-03-02T05:14:33.587Z,48.17
2024-03-02T05:17:00.316Z,46.20
2024-03-02T05:19:26.766Z,52.42
2024-03-02T05:21:53.360Z,46.45
2024-03-02T05:24:20.179Z,47.20
2024-03-02T05:32:28.044Z,47.13
2024-03-02T05:34:56.925Z,49.70
2024-03-02T05:37:23.568Z,54.15
2024-03-02T05:39:50.241Z,51.60
2024-03-02T05:42:16.923Z,56.10
2024-03-02T05:44:45.605Z,57.35
2024-03-02T05:47:12.412Z,51.38
2024-03-02T05:49:39.654Z,57.13
2024-03-02T05:52:06.425Z,54.15
2024-03-02T05:54:37.869Z,51.65
2024-03-02T05:57:04.467Z,54.45
2024-03-02T05:59:31.009Z,49.15
2024-03-02T06:01:57.583Z,52.10
2024-03-02T06:04:24.213Z,56.83
2024-03-02T06:06:51.825Z,55.10
2024-03-02T06:09:19.472Z,54.95
2024-03-02T06:11:46.269Z,55.92
2024-03-02T06:14:12.746Z,56.25
2024-03-02T06:16:39.350Z,56.03
2024-03-02T06:19:07.030Z,62.67
2024-03-02T06:21:33.781Z,49.08
2024-03-02T06:24:00.291Z,46.38
2024-03-02T06:26:26.857Z,44.70
2024-03-02T06:28:53.633Z,39.97
2024-03-02T06:31:20.450Z,37.10
2024-03-02T06:33:47.172Z,40.15
2024-03-02T06:36:16.115Z,34.22
2024-03-02T06:38:43.724Z,40.10
2024-03-02T06:41:10.433Z,35.53
2024-03-02T06:43:36.945Z,36.80
2024-03-02T06:46:03.556Z,37.42
2024-03-02T06:48:31.045Z,36.88
2024-03-02T06:50:58.353Z,36.15
2024-03-02T06:53:24.858Z,41.00
2024-03-02T06:55:51.267Z,40.95
2024-03-02T06:58:17.679Z,37.33
2024-03-02T07:00:46.766Z,37.67
2024-03-02T07:03:13.833Z,39.58
2024-03-02T07:05:40.454Z,37.47
2024-03-02T07:08:07.081Z,40.08
2024-03-02T07:10:34.058Z,36.35
2024-03-02T07:13:00.909Z,42.20
2024-03-02T07:15:27.637Z,40.55
2024-03-02T07:17:54.202Z,43.60
2024-03-02T07:20:23.278Z,37.80
2024-03-02T07:22:50.306Z,37.38
2024-03-02T07:27:46.745Z,37.20
2024-03-02T07:30:13.610Z,42.88
2024-03-02T07:32:41.472Z,42.10
2024-03-02T07:35:08.081Z,40.60
2024-03-02T07:37:35.016Z,40.03
2024-03-02T07:40:01.758Z,41.42
2024-03-02T07:42:30.772Z,43.65
2024-03-02T07:44:57.337Z,37.63
2024-03-02T07:47:24.653Z,37.47
2024-03-02T07:49:51.596Z,36.20
2024-03-02T07:52:18.083Z,44.40
2024-03-02T07:54:45.530Z,46.10
2024-03-02T07:57:11.948Z,42.05
2024-03-02T07:59:39.547Z,44.50
2024-03-02T08:02:06.455Z,38.97
2024-03-02T08:04:33.257Z,38.58
2024-03-02T08:06:59.949Z,38.50
2024-03-02T08:09:27.631Z,36.60
2024-03-02T08:11:54.735Z,43.17
2024-03-02T08:14:21.557Z,37.58
2024-03-02T08:16:48.245Z,33.63
2024-03-02T08:19:15.338Z,42.28
2024-03-02T08:21:42.230Z,34.42
2024-03-02T08:24:09.098Z,34.95
2024-03-02T08:26:36.828Z,35.63
2024-03-02T08:29:03.547Z,37.20
2024-03-02T08:34:10.850Z,39.13
2024-03-02T08:36:37.760Z,39.00
2024-03-02T08:39:04.890Z,37.53
2024-03-02T08:41:31.902Z,40.60
2024-03-02T08:43:59.117Z,41.58
2024-03-02T08:46:25.915Z,36.97
2024-03-02T08:48:52.365Z,40.90
2024-03-02T08:51:21.150Z,42.45
2024-03-02T08:53:48.027Z,43.17
2024-03-02T08:56:14.674Z,48.63
2024-03-02T08:58:41.354Z,43.80
2024-03-02T09:01:08.016Z,43.40
2024-03-02T09:03:34.931Z,42.67
2024-03-02T09:06:02.320Z,38.55
2024-03-02T09:08:28.966Z,37.88
2024-03-02T09:10:56.565Z,35.80
2024-03-02T09:13:23.001Z,44.92
2024-03-02T09:15:49.566Z,41.35
2024-03-02T09:18:16.054Z,43.17
2024-03-02T09:20:42.656Z,45.40
2024-03-02T09:23:12.140Z,42.83
2024-03-02T09:25:39.880Z,45.47
2024-03-02T09:28:06.478Z,42.55
2024-03-02T09:30:33.667Z,41.72
2024-03-02T09:35:33.985Z,44.08
2024-03-02T09:38:01.100Z,46.58
2024-03-02T09:40:27.625Z,49.33
2024-03-02T09:42:54.667Z,42.38
2024-03-02T09:45:23.878Z,45.97
2024-03-02T09:47:50.499Z,51.55
2024-03-02T09:50:17.912Z,44.75
2024-03-02T09:52:45.390Z,44.72
2024-03-02T09:55:14.512Z,46.75
2024-03-02T09:57:43.666Z,47.50
2024-03-02T10:00:10.566Z,49.80
2024-03-02T10:02:37.417Z,44.17
2024-03-02T10:05:07.888Z,48.38
2024-03-02T10:07:35.340Z,48.47
2024-03-02T10:10:02.135Z,49.63
2024-03-02T10:12:30.165Z,42.35
2024-03-02T10:14:57.269Z,44.38
2024-03-02T10:17:25.873Z,51.38
2024-03-02T10:19:53.332Z,49.63
2024-03-02T10:22:24.088Z,48.95
2024-03-02T10:24:59.544Z,51.78
2024-03-02T10:27:27.014Z,53.50
2024-03-02T10:29:53.881Z,47.20
2024-03-02T10:32:20.438Z,57.60
2024-03-02T10:34:46.883Z,55.65
2024-03-02T10:37:13.821Z,59.33
2024-03-02T10:39:41.532Z,54.20
2024-03-02T10:42:08.334Z,47.72
2024-03-02T10:44:35.317Z,53.08
2024-03-02T10:47:01.860Z,48.08
2024-03-02T10:49:28.542Z,48.30
2024-03-02T10:51:56.806Z,50.67
2024-03-02T10:54:30.075Z,51.47
2024-03-02T10:56:57.071Z,50.38
2024-03-02T10:59:23.609Z,44.88
2024-03-02T11:01:50.239Z,47.00
2024-03-02T11:04:17.907Z,52.47
2024-03-02T11:06:44.482Z,52.33
2024-03-02T11:09:11.563Z,50.03
2024-03-02T11:11:38.164Z,46.50
2024-03-02T11:14:04.608Z,46.83
2024-03-02T11:16:31.133Z,49.22
2024-03-02T11:18:59.924Z,44.40
2024-03-02T11:21:26.779Z,48.28
2024-03-02T11:23:54.566Z,46.05
2024-03-02T11:26:21.097Z,53.25
2024-03-02T11:28:47.568Z,49.22
2024-03-02T11:31:14.395Z,37.15
2024-03-02T11:33:40.990Z,50.17
2024-03-02T11:36:09.007Z,49.72
2024-03-02T11:38:37.143Z,45.75
2024-03-02T11:41:06.190Z,48.50
2024-03-02T11:43:32.720Z,43.03
2024-03-02T11:45:59.705Z,49.58
2024-03-02T11:48:28.889Z,52.05
2024-03-02T11:50:55.500Z,49.72
2024-03-02T11:53:24.194Z,53.90
2024-03-02T11:55:53.150Z,48.15
2024-03-02T11:58:19.818Z,47.97
2024-03-02T12:00:46.609Z,47.83
2024-03-02T12:03:13.167Z,54.10
2024-03-02T12:05:40.524Z,52.10
2024-03-02T12:08:08.168Z,53.88
2024-03-02T12:10:35.247Z,51.22
2024-03-02T12:13:02.202Z,53.88
2024-03-02T12:15:28.779Z,49.20
2024-03-02T12:17:55.393Z,56.60
2024-03-02T12:20:22.398Z,50.40
2024-03-02T12:22:50.014Z,50.20
2024-03-02T12:25:16.706Z,54.45
2024-03-02T12:27:44.277Z,50.30
2024-03-02T12:30:10.741Z,47.83
2024-03-02T12:32:37.673Z,53.97
2024-03-02T12:35:04.074Z,54.90
2024-03-02T12:37:30.653Z,46.33
2024-03-02T12:39:57.262Z,47.05
2024-03-02T12:42:23.864Z,52.10
2024-03-02T12:44:50.370Z,49.80
2024-03-02T12:47:17.030Z,47.67
2024-03-02T12:49:43.557Z,54.05
2024-03-02T12:52:10.321Z,44.25
2024-03-02T12:54:37.404Z,49.50
2024-03-02T12:57:03.945Z,42.10
2024-03-02T12:59:30.479Z,55.08
2024-03-02T13:01:57.158Z,48.50
2024-03-02T13:04:24.688Z,47.45
2024-03-02T13:06:51.287Z,40.45
2024-03-02T13:09:18.179Z,41.97
2024-03-02T13:11:44.726Z,47.85
2024-03-02T13:14:11.271Z,43.50
2024-03-02T13:16:44.453Z,46.88
2024-03-02T13:19:14.697Z,43.95
2024-03-02T13:21:41.625Z,38.38
2024-03-02T13:24:08.226Z,40.95
2024-03-02T13:26:35.103Z,42.53
2024-03-02T13:29:02.268Z,41.35
2024-03-02T13:31:28.728Z,45.28
2024-03-02T13:33:56.067Z,44.10
2024-03-02T13:36:22.832Z,39.50
2024-03-02T13:38:49.494Z,45.22
2024-03-02T13:41:16.136Z,42.63
2024-03-02T13:43:43.356Z,41.33
2024-03-02T13:46:09.950Z,43.83
2024-03-02T13:48:37.453Z,40.55
2024-03-02T13:51:04.217Z,46.55
2024-03-02T13:53:30.706Z,42.53
2024-03-02T13:55:58.072Z,41.65
2024-03-02T13:58:24.497Z,42.88
2024-03-02T14:00:52.550Z,42.20
2024-03-02T14:03:19.249Z,39.30
2024-03-02T14:05:46.211Z,47.72
2024-03-02T14:08:13.544Z,41.60
2024-03-02T14:10:40.009Z,36.67
2024-03-02T14:13:06.840Z,43.05
2024-03-02T14:15:33.938Z,44.97
2024-03-02T14:18:00.768Z,43.60
2024-03-02T14:20:27.682Z,46.90
2024-03-02T14:22:55.094Z,39.28
2024-03-02T14:25:21.614Z,41.85
2024-03-02T14:28:08.431Z,42.75
2024-03-02T14:30:38.719Z,46.63
2024-03-02T14:33:05.216Z,42.33
2024-03-02T14:35:34.174Z,47.92
2024-03-02T14:38:01.783Z,30.77
2024-03-02T14:40:28.271Z,30.50
2024-03-02T14:42:59.141Z,36.70
2024-03-02T14:45:26.308Z,46.17
2024-03-02T14:47:52.915Z,45.03
2024-03-02T14:50:19.892Z,44.00
2024-03-02T14:52:46.897Z,45.05
2024-03-02T14:55:14.081Z,43.70
2024-03-02T14:57:40.652Z,43.53
2024-03-02T15:00:12.101Z,43.70
2024-03-02T15:02:38.815Z,42.85
2024-03-02T15:05:06.435Z,44.28
2024-03-02T15:07:33.140Z,44.42
2024-03-02T15:09:59.703Z,46.25
2024-03-02T15:12:26.220Z,48.45
2024-03-02T15:14:53.083Z,45.03
2024-03-02T15:17:19.787Z,43.60
2024-03-02T15:19:46.588Z,47.00
2024-03-02T15:22:14.402Z,50.60
2024-03-02T15:24:41.403Z,49.83
2024-03-02T15:27:07.873Z,46.30
2024-03-02T15:29:34.486Z,50.13
2024-03-02T15:32:00.941Z,46.10
2024-03-02T15:34:27.652Z,41.63
2024-03-02T15:36:54.396Z,44.58
2024-03-02T15:39:21.281Z,47.47
2024-03-02T15:41:49.816Z,47.75
2024-03-02T15:44:19.808Z,46.63
2024-03-02T15:46:46.583Z,46.30
2024-03-02T15:49:13.364Z,46.78
2024-03-02T15:51:39.901Z,49.00
2024-03-02T15:54:06.503Z,49.35
2024-03-02T15:56:33.337Z,45.88
2024-03-02T15:58:59.911Z,47.90
2024-03-02T16:01:28.699Z,42.72
2024-03-02T16:03:57.256Z,49.10
2024-03-02T16:06:23.996Z,47.22
2024-03-02T16:08:50.585Z,48.50
2024-03-02T16:11:17.647Z,46.80
2024-03-02T16:13:44.161Z,46.75
2024-03-02T16:16:10.743Z,46.15
2024-03-02T16:18:37.350Z,47.80
2024-03-02T16:21:03.838Z,45.70
2024-03-02T16:23:30.751Z,41.00
2024-03-02T16:25:57.926Z,46.95
2024-03-02T16:28:25.788Z,45.08
2024-03-02T16:30:52.687Z,45.38
2024-03-02T16:33:19.356Z,41.90
2024-03-02T16:35:45.859Z,44.50
2024-03-02T16:38:13.129Z,43.33
2024-03-02T16:40:39.754Z,41.45
2024-03-02T16:43:06.473Z,40.97
2024-03-02T16:45:33.458Z,41.67
2024-03-02T16:48:00.974Z,37.40
2024-03-02T16:50:27.514Z,35.85
2024-03-02T16:52:54.346Z,36.45
2024-03-02T16:55:21.407Z,38.83
2024-03-02T16:57:48.270Z,36.72
2024-03-02T17:00:15.360Z,39.17
2024-03-02T17:02:41.905Z,39.75
2024-03-02T17:05:09.569Z,35.55
2024-03-02T17:07:40.515Z,38.88
2024-03-02T17:10:09.173Z,36.30
2024-03-02T17:12:35.991Z,40.33
2024-03-02T17:15:02.739Z,44.42
2024-03-02T17:17:29.612Z,38.83
2024-03-02T17:19:56.463Z,39.40
2024-03-02T17:22:23.325Z,39.75
2024-03-02T17:24:50.643Z,39.88
2024-03-02T17:27:17.335Z,37.53
2024-03-02T17:29:44.062Z,38.35
2024-03-02T17:32:10.927Z,37.78
2024-03-02T17:34:37.649Z,37.95
2024-03-02T17:37:04.469Z,41.33
2024-03-02T17:39:31.221Z,37.30
2024-03-02T17:41:57.684Z,36.13
2024-03-02T17:44:24.533Z,35.95
2024-03-02T17:46:51.403Z,39.15
2024-03-02T17:49:20.693Z,38.78
2024-03-02T17:51:47.584Z,36.80
2024-03-02T17:54:14.174Z,25.77
2024-03-02T17:56:40.729Z,25.98
2024-03-02T17:59:08.455Z,35.80
2024-03-02T18:01:34.872Z,36.75
2024-03-02T18:04:01.450Z,37.95
2024-03-02T18:06:28.875Z,40.50
2024-03-02T18:08:55.609Z,35.45
2024-03-02T18:11:22.852Z,35.95
2024-03-02T18:13:49.533Z,35.80
2024-03-02T18:16:16.420Z,32.85
2024-03-02T18:18:43.236Z,38.28
2024-03-02T18:21:09.835Z,36.40
2024-03-02T18:23:36.289Z,41.45
2024-03-02T18:26:03.200Z,39.97
2024-03-02T18:28:30.854Z,38.33
2024-03-02T18:30:57.448Z,35.50
2024-03-02T18:33:23.942Z,31.25
2024-03-02T18:35:50.492Z,36.35
2024-03-02T18:38:16.979Z,33.78
2024-03-02T18:40:43.455Z,36.72
2024-03-02T18:43:09.968Z,34.20
2024-03-02T18:45:36.569Z,39.13
2024-03-02T18:48:03.804Z,36.58
2024-03-02T18:50:31.988Z,32.90
2024-03-02T18:52:58.614Z,36.00
2024-03-02T18:55:25.411Z,34.42
2024-03-02T18:57:56.715Z,36.22
2024-03-02T19:00:23.641Z,33.03
2024-03-02T19:02:50.241Z,32.08
2024-03-02T19:05:16.966Z,39.15
2024-03-02T19:07:46.049Z,32.17
2024-03-02T19:10:12.685Z,31.45
2024-03-02T19:12:42.212Z,36.70
2024-03-02T19:15:11.876Z,34.55
2024-03-02T19:17:39.269Z,32.90
2024-03-02T19:25:45.359Z,26.75
2024-03-02T19:28:12.845Z,27.90
2024-03-02T19:30:40.928Z,27.67
2024-03-02T19:33:19.050Z,28.02
2024-03-02T19:35:45.634Z,28.52
2024-03-02T19:38:12.649Z,30.00
2024-03-02T19:40:39.405Z,31.15
2024-03-02T19:43:06.694Z,28.80
2024-03-02T19:45:34.627Z,32.45
2024-03-02T19:48:01.288Z,32.53
2024-03-02T19:50:29.513Z,34.55
2024-03-02T19:52:56.095Z,34.65
2024-03-02T19:55:22.993Z,33.03
2024-03-02T19:57:49.811Z,35.28
2024-03-02T20:00:16.550Z,36.20
2024-03-02T20:02:43.691Z,34.67
2024-03-02T20:05:10.622Z,35.53
2024-03-02T20:07:37.524Z,36.45
2024-03-02T20:10:04.142Z,37.05
2024-03-02T20:12:30.739Z,33.50
2024-03-02T20:15:05.176Z,37.50
2024-03-02T20:17:31.929Z,34.38
2024-03-02T20:19:58.966Z,35.03
2024-03-02T20:22:26.017Z,36.45
2024-03-02T20:24:52.960Z,37.75
2024-03-02T20:27:21.413Z,36.60
2024-03-02T20:29:48.338Z,36.65
2024-03-02T20:32:15.102Z,36.40
2024-03-02T20:34:43.172Z,33.80
2024-03-02T20:37:10.458Z,35.08
2024-03-02T20:39:37.051Z,37.00
2024-03-02T20:42:05.566Z,38.70
2024-03-02T20:44:34.687Z,33.10
2024-03-02T20:47:01.429Z,41.30
2024-03-02T20:49:29.087Z,36.38
2024-03-02T20:51:56.428Z,36.13
2024-03-02T20:54:23.819Z,36.90
2024-03-02T20:56:50.942Z,39.20
2024-03-02T20:59:17.754Z,38.75
2024-03-02T21:01:46.445Z,35.45
2024-03-02T21:04:14.530Z,38.28
2024-03-02T21:06:41.295Z,37.67
2024-03-02T21:09:07.996Z,37.28
2024-03-02T21:11:35.407Z,41.30
2024-03-02T21:14:02.063Z,37.67
2024-03-02T21:16:29.486Z,38.50
2024-03-02T21:21:47.470Z,39.20
2024-03-02T21:24:14.935Z,38.47
2024-03-02T21:26:41.690Z,41.92
2024-03-02T21:29:08.746Z,42.63
2024-03-02T21:31:35.672Z,41.25
2024-03-02T21:34:02.236Z,41.42
2024-03-02T21:36:28.900Z,41.78
2024-03-02T21:38:56.093Z,39.92
2024-03-02T21:41:22.851Z,38.60
2024-03-02T21:43:50.320Z,40.95
2024-03-02T21:46:16.875Z,46.00
2024-03-02T21:48:43.596Z,38.50
2024-03-02T21:51:10.619Z,40.60
2024-03-02T21:53:37.961Z,46.72
2024-03-02T21:56:05.852Z,36.65
2024-03-02T21:58:32.830Z,46.88
2024-03-02T22:00:59.389Z,45.25
2024-03-02T22:03:26.002Z,44.50
2024-03-02T22:05:53.002Z,42.63
2024-03-02T22:08:19.761Z,40.13
2024-03-02T22:10:46.377Z,44.63
2024-03-02T22:13:13.036Z,42.97
2024-03-02T22:15:40.352Z,43.53
2024-03-02T22:18:07.779Z,45.45
2024-03-02T22:20:37.492Z,44.35
2024-03-02T22:23:05.818Z,48.45
2024-03-02T22:25:32.302Z,54.38
2024-03-02T22:27:59.360Z,52.45
2024-03-02T22:30:25.830Z,48.63
2024-03-02T22:32:52.497Z,51.47
2024-03-02T22:35:22.479Z,48.90
2024-03-02T22:37:51.499Z,53.67
2024-03-02T22:40:18.093Z,45.95
2024-03-02T22:45:37.482Z,50.40
2024-03-02T22:48:04.774Z,48.22
2024-03-02T22:50:31.397Z,55.90
2024-03-02T22:53:00.368Z,50.13
2024-03-02T22:55:27.112Z,52.65
2024-03-02T22:57:54.140Z,53.97
2024-03-02T23:00:22.858Z,48.65
2024-03-02T23:02:49.506Z,49.28
2024-03-02T23:05:16.412Z,47.20
2024-03-02T23:07:43.001Z,46.03
2024-03-02T23:10:11.298Z,50.58
2024-03-02T23:12:38.517Z,53.70
2024-03-02T23:15:05.022Z,51.08
2024-03-02T23:17:32.212Z,57.60
2024-03-02T23:19:58.746Z,51.53
2024-03-02T23:22:26.310Z,49.15
2024-03-02T23:24:52.966Z,55.58
2024-03-02T23:27:19.999Z,58.42
2024-03-02T23:29:46.767Z,53.35
2024-03-02T23:32:13.861Z,48.92
2024-03-02T23:34:40.938Z,54.85
2024-03-02T23:37:07.834Z,50.95
2024-03-02T23:39:34.970Z,52.40
2024-03-02T23:42:01.697Z,48.47
2024-03-02T23:44:28.304Z,56.38
2024-03-02T23:46:54.794Z,49.95
2024-03-02T23:49:21.457Z,50.78
2024-03-02T23:51:48.131Z,55.92
2024-03-02T23:54:15.243Z,51.85
2024-03-02T23:56:41.839Z,55.03
2024-03-02T23:59:10.334Z,53.05
